Time;durP1;ratioP1;P1;durP2;ratioP2;P2;SDS_P1;SDS_P2;PMS_P1;PMS_P2;Temp;Humidity;BMP_temperature;BMP_pressure;BME280_temperature;BME280_humidity;BME280_pressure;Samples;Min_cycle;Max_cycle;Signal;HPM_P1;HPM_P2
2021/06/09 00:00:50;;;;;;;11.98;9.57;;;17.60;99.90;;;;;;5090189;28;20139;-78
2021/06/09 00:03:17;;;;;;;11.57;9.00;;;17.60;99.90;;;;;;5056858;28;20048;-78
2021/06/09 00:05:42;;;;;;;12.70;9.68;;;17.60;99.90;;;;;;5073201;28;20025;-78
2021/06/09 00:08:08;;;;;;;11.80;9.95;;;17.50;99.90;;;;;;5090248;28;20031;-79
2021/06/09 00:10:34;;;;;;;15.48;9.73;;;17.60;99.90;;;;;;5073451;28;20039;-77
2021/06/09 00:13:00;;;;;;;10.70;8.55;;;17.50;99.90;;;;;;5072312;28;20032;-79
2021/06/09 00:15:26;;;;;;;11.90;9.48;;;17.50;99.90;;;;;;5073743;28;20119;-78
2021/06/09 00:17:52;;;;;;;11.48;8.88;;;17.50;99.90;;;;;;5073394;28;20036;-79
2021/06/09 00:20:22;;;;;;;10.48;9.07;;;17.40;99.90;;;;;;5073982;28;20624;-78
2021/06/09 00:22:49;;;;;;;10.65;8.82;;;17.40;99.90;;;;;;5088959;28;20028;-78
2021/06/09 00:25:16;;;;;;;14.43;9.30;;;17.40;99.90;;;;;;5072786;28;20028;-78
2021/06/09 00:27:43;;;;;;;11.07;9.80;;;17.40;99.90;;;;;;5074571;28;20091;-79
2021/06/09 00:30:10;;;;;;;12.07;9.52;;;17.30;99.90;;;;;;5089622;28;20483;-77
2021/06/09 00:32:36;;;;;;;11.95;9.63;;;17.40;99.90;;;;;;5080322;28;20017;-78
2021/06/09 00:35:04;;;;;;;12.10;9.80;;;17.40;99.90;;;;;;5079080;28;20560;-77
2021/06/09 00:37:29;;;;;;;11.18;9.70;;;17.30;99.90;;;;;;5079253;28;20115;-78
2021/06/09 00:39:55;;;;;;;11.95;9.27;;;17.30;99.90;;;;;;5078780;28;20125;-78
2021/06/09 00:42:21;;;;;;;12.73;9.90;;;17.30;99.90;;;;;;5061888;28;20024;-77
2021/06/09 00:44:48;;;;;;;14.10;10.20;;;17.30;99.90;;;;;;5078386;28;20043;-77
2021/06/09 00:47:22;;;;;;;15.32;11.10;;;17.30;99.90;;;;;;5079120;28;20040;-78
2021/06/09 00:49:48;;;;;;;14.88;9.55;;;17.30;99.90;;;;;;5079072;28;20039;-78
2021/06/09 00:52:14;;;;;;;12.25;9.02;;;17.20;99.90;;;;;;5078370;28;21027;-78
2021/06/09 00:54:39;;;;;;;13.48;10.80;;;17.20;99.90;;;;;;5094855;28;20040;-77
2021/06/09 00:57:06;;;;;;;12.65;9.98;;;17.20;99.90;;;;;;5080761;28;20043;-77
2021/06/09 00:59:33;;;;;;;15.32;10.40;;;17.20;99.90;;;;;;5094842;28;20138;-78
2021/06/09 01:01:59;;;;;;;11.50;9.63;;;17.20;99.90;;;;;;5080399;28;20112;-78
2021/06/09 01:04:25;;;;;;;12.88;9.95;;;17.20;99.90;;;;;;5099974;28;20206;-78
2021/06/09 01:06:52;;;;;;;12.23;10.23;;;17.20;99.90;;;;;;5065254;28;20024;-78
2021/06/09 01:09:17;;;;;;;13.15;10.60;;;17.10;99.90;;;;;;5082610;28;20060;-77
2021/06/09 01:11:43;;;;;;;14.30;9.90;;;17.10;99.90;;;;;;5056961;28;20033;-79
2021/06/09 01:14:09;;;;;;;13.00;9.90;;;17.10;99.90;;;;;;5080808;28;20044;-78
2021/06/09 01:16:35;;;;;;;12.18;9.82;;;17.10;99.90;;;;;;5081791;28;20101;-78
2021/06/09 01:19:01;;;;;;;12.30;9.73;;;17.00;99.90;;;;;;5081706;28;20041;-79
2021/06/09 01:21:33;;;;;;;12.88;9.95;;;17.00;99.90;;;;;;5082959;28;20033;-78
2021/06/09 01:24:01;;;;;;;15.13;10.93;;;17.00;99.90;;;;;;5081847;28;20497;-78
2021/06/09 01:26:28;;;;;;;13.10;10.52;;;17.00;99.90;;;;;;5080797;28;20020;-77
2021/06/09 01:28:55;;;;;;;13.45;10.07;;;17.00;99.90;;;;;;5094931;28;20105;-78
2021/06/09 01:31:24;;;;;;;13.93;10.15;;;16.90;99.90;;;;;;5080536;28;20028;-78
2021/06/09 01:33:50;;;;;;;13.65;10.07;;;16.90;99.90;;;;;;5082217;28;20036;-78
2021/06/09 01:36:16;;;;;;;13.73;10.23;;;16.90;99.90;;;;;;5081913;28;20029;-78
2021/06/09 01:38:42;;;;;;;11.90;9.93;;;16.80;99.90;;;;;;5064328;28;20056;-78
2021/06/09 01:41:08;;;;;;;15.00;10.45;;;16.80;99.90;;;;;;5082677;28;20036;-78
2021/06/09 01:43:34;;;;;;;13.10;10.38;;;16.70;99.90;;;;;;5082884;28;20025;-78
2021/06/09 01:46:01;;;;;;;13.85;10.40;;;16.80;99.90;;;;;;5082853;28;20439;-78
2021/06/09 01:48:30;;;;;;;12.23;9.88;;;16.80;99.90;;;;;;5083196;28;20107;-78
2021/06/09 01:50:56;;;;;;;15.32;10.98;;;16.70;99.90;;;;;;5065489;28;20033;-78
2021/06/09 01:53:22;;;;;;;13.90;10.52;;;16.70;99.90;;;;;;5083027;28;20061;-78
2021/06/09 01:55:48;;;;;;;14.77;10.52;;;16.70;99.90;;;;;;5064194;28;20040;-78
2021/06/09 01:58:14;;;;;;;13.63;10.43;;;16.70;99.90;;;;;;5082862;28;20445;-78
2021/06/09 02:00:44;;;;;;;14.15;10.80;;;16.70;99.90;;;;;;5081590;28;20020;-78
2021/06/09 02:03:13;;;;;;;14.23;10.52;;;16.70;99.90;;;;;;5082063;28;20029;-78
2021/06/09 02:05:55;;;;;;;14.35;9.98;;;16.80;99.90;;;;;;5082575;28;20070;-78
2021/06/09 02:08:20;;;;;;;12.88;10.10;;;16.70;99.90;;;;;;5080664;28;20028;-78
2021/06/09 02:10:46;;;;;;;14.48;11.52;;;16.80;99.90;;;;;;5052570;28;20382;-77
2021/06/09 02:13:14;;;;;;;14.02;10.13;;;16.70;99.90;;;;;;5076705;28;20039;-77
2021/06/09 02:15:41;;;;;;;12.55;10.40;;;16.80;99.90;;;;;;5081208;28;20054;-77
2021/06/09 02:18:12;;;;;;;14.65;10.63;;;16.70;99.90;;;;;;5083223;28;20029;-78
2021/06/09 02:20:42;;;;;;;16.83;11.05;;;16.70;99.90;;;;;;5082395;28;20083;-77
2021/06/09 02:23:10;;;;;;;16.50;10.93;;;16.70;99.90;;;;;;5072024;28;20020;-78
2021/06/09 02:25:37;;;;;;;15.35;10.77;;;16.70;99.90;;;;;;5071540;28;20024;-78
2021/06/09 02:28:04;;;;;;;14.95;10.70;;;16.70;99.90;;;;;;5069992;28;20052;-77
2021/06/09 02:30:33;;;;;;;14.38;11.38;;;16.70;99.90;;;;;;5070433;28;20035;-77
2021/06/09 02:32:59;;;;;;;12.68;9.98;;;16.70;99.90;;;;;;5053778;28;20496;-78
2021/06/09 02:35:25;;;;;;;11.90;10.25;;;16.70;99.90;;;;;;5070963;28;20025;-78
2021/06/09 02:37:53;;;;;;;15.18;11.07;;;16.80;99.90;;;;;;5071059;28;20036;-77
2021/06/09 02:40:21;;;;;;;19.15;12.95;;;16.80;99.90;;;;;;5071456;28;20495;-78
2021/06/09 02:42:47;;;;;;;18.85;12.75;;;16.80;99.90;;;;;;5071254;28;20056;-78
2021/06/09 02:45:17;;;;;;;20.20;14.18;;;16.80;99.90;;;;;;5069884;28;20102;-77
2021/06/09 02:47:49;;;;;;;18.60;13.90;;;16.90;99.90;;;;;;5085162;28;20028;-77
2021/06/09 02:50:17;;;;;;;20.85;13.18;;;16.90;99.90;;;;;;5071948;28;20514;-77
2021/06/09 02:53:11;;;;;;;16.10;12.63;;;16.90;99.90;;;;;;5068311;28;20418;-77
2021/06/09 02:55:39;;;;;;;17.20;12.60;;;16.90;99.90;;;;;;5065521;28;20193;-77
2021/06/09 02:58:12;;;;;;;22.05;13.43;;;16.90;99.90;;;;;;5070085;28;20032;-77
2021/06/09 03:01:23;;;;;;;18.23;13.20;;;16.90;99.90;;;;;;5068883;28;20036;-77
2021/06/09 03:04:02;;;;;;;20.92;14.40;;;16.90;99.90;;;;;;5069388;28;20067;-77
2021/06/09 03:07:01;;;;;;;20.58;13.88;;;16.90;99.90;;;;;;5083938;28;20031;-77
2021/06/09 03:09:52;;;;;;;22.08;14.90;;;16.90;99.90;;;;;;5054376;28;20041;-77
2021/06/09 03:12:34;;;;;;;21.38;14.88;;;16.90;99.90;;;;;;5068855;28;20036;-77
2021/06/09 03:15:12;;;;;;;21.13;14.48;;;16.90;99.90;;;;;;5070513;28;20044;-78
2021/06/09 03:17:55;;;;;;;21.10;13.10;;;16.90;99.90;;;;;;5085099;28;20483;-77
2021/06/09 03:20:40;;;;;;;19.40;13.05;;;16.80;99.90;;;;;;5070745;28;20043;-77
2021/06/09 03:23:30;;;;;;;19.08;13.43;;;16.80;99.90;;;;;;5068130;28;20109;-76
2021/06/09 03:26:14;;;;;;;20.45;13.93;;;16.80;99.90;;;;;;5069482;28;20121;-78
2021/06/09 03:28:51;;;;;;;19.63;13.45;;;16.70;99.90;;;;;;5086530;28;20031;-77
2021/06/09 03:31:22;;;;;;;20.20;13.73;;;16.70;99.90;;;;;;5069687;28;20025;-77
2021/06/09 03:33:51;;;;;;;19.58;13.38;;;16.80;99.90;;;;;;5069006;28;20498;-78
2021/06/09 03:36:27;;;;;;;18.17;12.52;;;16.70;99.90;;;;;;5069942;28;20025;-77
2021/06/09 03:39:00;;;;;;;17.00;12.63;;;16.70;99.90;;;;;;5068362;28;20121;-77
2021/06/09 03:41:41;;;;;;;20.25;14.27;;;16.70;99.90;;;;;;5070317;28;20028;-77
2021/06/09 03:44:09;;;;;;;21.77;14.95;;;16.70;99.90;;;;;;5085381;28;20115;-77
2021/06/09 03:46:38;;;;;;;22.40;14.50;;;16.70;99.90;;;;;;5084496;28;20033;-78
2021/06/09 03:49:13;;;;;;;25.67;16.40;;;16.70;99.90;;;;;;5067708;28;20024;-77
2021/06/09 03:51:40;;;;;;;22.65;15.88;;;16.80;99.90;;;;;;5069546;28;20495;-77
2021/06/09 03:54:07;;;;;;;19.75;13.70;;;16.80;99.90;;;;;;5070067;28;20031;-78
2021/06/09 03:56:34;;;;;;;19.17;14.30;;;16.90;99.90;;;;;;5068001;28;20043;-77
2021/06/09 03:59:03;;;;;;;21.13;15.50;;;16.90;99.90;;;;;;5070282;28;20033;-77
2021/06/09 04:01:35;;;;;;;23.00;16.35;;;17.00;99.90;;;;;;5069871;28;20107;-78
2021/06/09 04:04:03;;;;;;;20.88;14.68;;;17.00;99.90;;;;;;5068899;28;20071;-77
2021/06/09 04:06:31;;;;;;;18.45;14.27;;;17.00;99.90;;;;;;5084656;28;20037;-77
2021/06/09 04:08:58;;;;;;;16.08;12.57;;;17.00;99.90;;;;;;5069792;28;20107;-77
2021/06/09 04:11:25;;;;;;;17.63;12.77;;;17.00;99.90;;;;;;5084926;28;20032;-78
2021/06/09 04:13:53;;;;;;;21.55;13.40;;;17.00;99.90;;;;;;5070223;28;20653;-76
2021/06/09 04:16:20;;;;;;;18.40;13.82;;;17.10;99.90;;;;;;5069493;28;20028;-77
2021/06/09 04:18:48;;;;;;;20.42;14.52;;;17.10;99.90;;;;;;5068921;28;20032;-77
2021/06/09 04:21:15;;;;;;;24.08;14.27;;;17.20;99.90;;;;;;5068323;28;20556;-76
2021/06/09 04:23:41;;;;;;;19.92;14.35;;;17.20;99.90;;;;;;5051966;28;20025;-76
2021/06/09 04:26:11;;;;;;;17.67;12.77;;;17.20;99.90;;;;;;5067983;28;20548;-77
2021/06/09 04:28:37;;;;;;;18.55;13.13;;;17.20;99.90;;;;;;5069378;28;20085;-77
2021/06/09 04:31:03;;;;;;;18.00;11.70;;;17.30;99.90;;;;;;5068092;28;20038;-76
2021/06/09 04:33:30;;;;;;;23.67;14.25;;;17.30;99.90;;;;;;5066712;28;20072;-77
2021/06/09 04:35:57;;;;;;;19.70;13.73;;;17.30;99.90;;;;;;5067860;28;20162;-77
2021/06/09 04:38:23;;;;;;;16.85;12.45;;;17.40;99.90;;;;;;5068565;28;20037;-77
2021/06/09 04:40:51;;;;;;;17.10;12.52;;;17.50;99.90;;;;;;5065859;28;20149;-77
2021/06/09 04:43:20;;;;;;;17.95;13.32;;;17.50;99.90;;;;;;5069779;28;20044;-77
2021/06/09 04:45:46;;;;;;;18.40;12.40;;;17.60;99.90;;;;;;5069010;28;20025;-77
2021/06/09 04:48:14;;;;;;;18.88;13.60;;;17.60;99.90;;;;;;5068896;28;20020;-78
2021/06/09 04:50:41;;;;;;;16.05;12.52;;;17.70;99.90;;;;;;5067906;28;20025;-77
2021/06/09 04:53:12;;;;;;;16.77;13.20;;;17.70;99.90;;;;;;5084880;28;20025;-77
2021/06/09 04:55:42;;;;;;;19.52;13.52;;;17.80;99.90;;;;;;5067725;28;20035;-77
2021/06/09 04:58:10;;;;;;;19.08;14.82;;;17.90;99.90;;;;;;5069745;28;20025;-77
2021/06/09 05:00:36;;;;;;;18.95;13.00;;;18.00;99.90;;;;;;5070075;28;20036;-77
2021/06/09 05:03:03;;;;;;;17.27;12.35;;;18.00;99.90;;;;;;5065311;28;20024;-78
2021/06/09 05:05:29;;;;;;;18.55;14.10;;;18.00;99.90;;;;;;5066934;28;20037;-78
2021/06/09 05:07:55;;;;;;;18.17;12.95;;;18.10;99.90;;;;;;5069442;28;20068;-77
2021/06/09 05:10:21;;;;;;;15.88;12.73;;;18.10;99.90;;;;;;5066892;28;20127;-77
2021/06/09 05:12:55;;;;;;;17.38;12.63;;;18.10;99.90;;;;;;5067590;28;20033;-77
2021/06/09 05:15:25;;;;;;;16.65;12.40;;;18.10;99.90;;;;;;5069218;28;20103;-78
2021/06/09 05:17:51;;;;;;;17.10;13.00;;;18.10;99.90;;;;;;5068428;28;20102;-78
2021/06/09 05:20:24;;;;;;;19.88;12.63;;;18.20;99.90;;;;;;5067869;28;20344;-78
2021/06/09 05:23:02;;;;;;;20.52;13.07;;;18.20;99.90;;;;;;5068235;28;20055;-77
2021/06/09 05:25:29;;;;;;;19.25;13.85;;;18.20;99.90;;;;;;5067548;28;20483;-77
2021/06/09 05:27:57;;;;;;;18.88;13.70;;;18.20;99.90;;;;;;5068285;28;20207;-77
2021/06/09 05:30:24;;;;;;;18.63;13.55;;;18.30;99.90;;;;;;5067762;28;20017;-78
2021/06/09 05:32:53;;;;;;;16.73;13.43;;;18.20;99.90;;;;;;5068894;28;20094;-77
2021/06/09 05:35:20;;;;;;;18.55;12.48;;;18.10;99.90;;;;;;5084267;28;20029;-78
2021/06/09 05:37:47;;;;;;;17.88;12.57;;;18.10;99.90;;;;;;5068053;28;20036;-77
2021/06/09 05:40:16;;;;;;;15.80;12.45;;;18.00;99.90;;;;;;5069034;28;20055;-78
2021/06/09 05:42:42;;;;;;;13.70;11.23;;;18.00;99.90;;;;;;5083136;28;20036;-77
2021/06/09 05:45:08;;;;;;;14.50;11.15;;;17.90;99.90;;;;;;5069625;28;20058;-77
2021/06/09 05:47:44;;;;;;;13.65;10.38;;;17.90;99.90;;;;;;5072400;28;20063;-78
2021/06/09 05:50:19;;;;;;;14.80;10.82;;;17.80;99.90;;;;;;5087094;28;20067;-78
2021/06/09 05:52:46;;;;;;;13.00;10.35;;;17.80;99.90;;;;;;5069607;28;20028;-77
2021/06/09 05:55:26;;;;;;;13.73;10.30;;;17.70;99.90;;;;;;5069433;28;20498;-78
2021/06/09 05:57:54;;;;;;;12.40;9.68;;;17.70;99.90;;;;;;5087180;28;20517;-77
2021/06/09 06:00:23;;;;;;;11.10;9.38;;;17.60;99.90;;;;;;5070730;28;20028;-78
2021/06/09 06:02:49;;;;;;;11.35;9.38;;;17.60;99.90;;;;;;5067202;28;20056;-78
2021/06/09 06:05:17;;;;;;;9.32;7.45;;;17.50;99.90;;;;;;5063242;28;20039;-78
2021/06/09 06:07:44;;;;;;;10.30;7.18;;;17.50;99.90;;;;;;5064805;28;20641;-77
2021/06/09 06:10:11;;;;;;;10.30;7.20;;;17.50;99.90;;;;;;5070287;28;20063;-77
2021/06/09 06:12:38;;;;;;;9.43;7.15;;;17.40;99.90;;;;;;5067714;28;20112;-78
2021/06/09 06:15:09;;;;;;;9.55;6.90;;;17.30;99.90;;;;;;5069992;28;20501;-77
2021/06/09 06:17:42;;;;;;;10.35;7.07;;;17.20;99.90;;;;;;5039325;28;20036;-78
2021/06/09 06:20:17;;;;;;;9.00;6.70;;;17.10;99.90;;;;;;5068940;28;20101;-78
2021/06/09 06:22:45;;;;;;;9.57;7.38;;;17.00;99.90;;;;;;5071045;28;20035;-78
2021/06/09 06:25:16;;;;;;;11.25;6.85;;;16.90;99.90;;;;;;5089734;28;20067;-78
2021/06/09 06:27:42;;;;;;;10.50;6.88;;;16.60;99.90;;;;;;5080270;28;20029;-77
2021/06/09 06:30:08;;;;;;;9.18;6.78;;;16.40;99.90;;;;;;5069430;28;20045;-77
2021/06/09 06:32:35;;;;;;;9.27;5.95;;;16.20;99.90;;;;;;5071268;28;20055;-78
2021/06/09 06:35:01;;;;;;;10.38;7.07;;;16.10;99.90;;;;;;5073160;28;20039;-78
2021/06/09 06:37:29;;;;;;;11.25;6.55;;;15.80;99.90;;;;;;5074432;28;20106;-78
2021/06/09 06:39:55;;;;;;;12.88;6.28;;;15.70;99.90;;;;;;5071569;28;20103;-78
2021/06/09 06:42:21;;;;;;;10.00;5.82;;;15.50;99.90;;;;;;5074776;28;20029;-78
2021/06/09 06:44:47;;;;;;;8.75;6.22;;;15.50;99.90;;;;;;5056417;28;20060;-78
2021/06/09 06:47:15;;;;;;;8.40;6.20;;;15.30;99.90;;;;;;5089129;28;20463;-78
2021/06/09 06:49:43;;;;;;;7.85;5.60;;;15.30;99.90;;;;;;5074553;28;20427;-78
2021/06/09 06:52:09;;;;;;;10.95;6.53;;;15.20;99.90;;;;;;5074191;28;20028;-78
2021/06/09 06:54:35;;;;;;;10.23;6.20;;;15.10;99.90;;;;;;5074607;28;20039;-78
2021/06/09 06:57:01;;;;;;;9.68;6.72;;;15.10;99.90;;;;;;5074494;28;20395;-78
2021/06/09 06:59:27;;;;;;;9.05;6.30;;;15.10;99.90;;;;;;5073364;28;20036;-78
2021/06/09 07:01:54;;;;;;;9.20;6.85;;;15.10;99.90;;;;;;5072715;28;20032;-78
2021/06/09 07:04:21;;;;;;;9.75;6.53;;;15.00;99.90;;;;;;5089781;28;20020;-78
2021/06/09 07:06:49;;;;;;;9.02;6.55;;;15.00;99.90;;;;;;5071942;28;20036;-78
2021/06/09 07:09:16;;;;;;;8.32;6.05;;;14.90;99.90;;;;;;5072984;28;20417;-78
2021/06/09 07:11:43;;;;;;;8.73;6.03;;;15.00;99.90;;;;;;5072304;28;20040;-78
2021/06/09 07:14:11;;;;;;;6.78;5.50;;;14.90;99.90;;;;;;5072610;28;20032;-78
2021/06/09 07:16:39;;;;;;;6.80;4.95;;;14.90;99.90;;;;;;5072224;28;20024;-78
2021/06/09 07:19:10;;;;;;;6.60;4.70;;;14.80;99.90;;;;;;5072845;28;20057;-78
2021/06/09 07:21:38;;;;;;;7.57;5.53;;;14.70;99.90;;;;;;5067478;28;20039;-80
2021/06/09 07:24:05;;;;;;;6.82;4.93;;;14.70;99.90;;;;;;5051010;28;20029;-78
2021/06/09 07:26:39;;;;;;;6.30;5.28;;;14.60;99.90;;;;;;5071114;28;20020;-79
2021/06/09 07:29:06;;;;;;;8.15;5.18;;;14.60;99.90;;;;;;5083529;28;20063;-78
2021/06/09 07:31:37;;;;;;;7.18;5.22;;;14.50;99.90;;;;;;5054210;28;20062;-78
2021/06/09 07:34:05;;;;;;;8.35;5.57;;;14.60;99.90;;;;;;5071983;28;20029;-78
2021/06/09 07:36:53;;;;;;;7.40;4.97;;;14.60;99.90;;;;;;5070908;28;20033;-78
2021/06/09 07:39:32;;;;;;;7.78;5.43;;;14.60;99.90;;;;;;5066131;28;20043;-79
2021/06/09 07:42:05;;;;;;;8.55;5.40;;;14.50;99.90;;;;;;5066678;28;20024;-78
2021/06/09 07:44:40;;;;;;;6.90;4.57;;;14.50;99.90;;;;;;5069175;28;20036;-78
2021/06/09 07:47:08;;;;;;;9.65;5.40;;;14.40;99.90;;;;;;5069188;28;20056;-78
2021/06/09 07:49:36;;;;;;;6.95;5.15;;;14.50;99.90;;;;;;5067451;28;20038;-78
2021/06/09 07:52:05;;;;;;;8.75;5.72;;;14.30;99.90;;;;;;5070113;28;20074;-77
2021/06/09 07:54:33;;;;;;;7.60;5.57;;;14.20;99.90;;;;;;5071044;28;20020;-78
2021/06/09 07:57:01;;;;;;;9.73;5.63;;;14.10;99.90;;;;;;5069415;28;20488;-78
2021/06/09 07:59:27;;;;;;;8.73;6.07;;;14.10;99.90;;;;;;5075013;28;20441;-77
2021/06/09 08:01:53;;;;;;;9.27;5.35;;;14.10;99.90;;;;;;5069967;28;20111;-78
2021/06/09 08:04:21;;;;;;;8.38;5.78;;;14.20;99.90;;;;;;5061605;28;20068;-78
2021/06/09 08:06:47;;;;;;;7.32;5.35;;;14.20;99.90;;;;;;5077935;28;20035;-78
2021/06/09 08:09:15;;;;;;;11.93;6.38;;;14.30;99.90;;;;;;5053926;28;20120;-78
2021/06/09 08:11:42;;;;;;;8.40;5.55;;;14.20;99.90;;;;;;5067564;28;20059;-78
2021/06/09 08:14:08;;;;;;;12.63;6.63;;;14.10;99.90;;;;;;5062702;28;20087;-78
2021/06/09 08:16:35;;;;;;;12.75;6.00;;;14.00;99.90;;;;;;5083528;28;20752;-79
2021/06/09 08:19:06;;;;;;;13.23;6.18;;;14.00;99.90;;;;;;5079860;28;20032;-80
2021/06/09 08:21:32;;;;;;;9.45;6.03;;;13.90;99.90;;;;;;5064559;28;20036;-78
2021/06/09 08:23:58;;;;;;;7.65;5.43;;;13.90;99.90;;;;;;5067121;28;20024;-78
2021/06/09 08:26:25;;;;;;;9.23;5.43;;;14.00;99.90;;;;;;5067863;28;20677;-79
2021/06/09 08:28:53;;;;;;;9.20;5.78;;;14.00;99.90;;;;;;5067087;28;20052;-78
2021/06/09 08:31:30;;;;;;;7.05;5.30;;;14.00;99.90;;;;;;5062127;28;20032;-77
2021/06/09 08:33:58;;;;;;;6.20;4.53;;;14.10;99.90;;;;;;5060761;28;20036;-77
2021/06/09 08:36:24;;;;;;;5.60;4.22;;;14.10;99.90;;;;;;5073435;28;20634;-78
2021/06/09 08:38:55;;;;;;;6.18;4.20;;;14.10;99.90;;;;;;5077085;28;20429;-77
2021/06/09 08:41:23;;;;;;;5.85;3.63;;;14.20;99.90;;;;;;5080640;28;20024;-78
2021/06/09 08:43:49;;;;;;;4.72;3.60;;;14.30;99.90;;;;;;5059849;28;20025;-78
2021/06/09 08:46:17;;;;;;;5.85;3.38;;;14.40;99.90;;;;;;5070548;28;20105;-77
2021/06/09 08:48:45;;;;;;;4.22;2.83;;;14.50;99.90;;;;;;5061819;28;20037;-77
2021/06/09 08:51:14;;;;;;;4.97;3.20;;;14.60;99.90;;;;;;5054861;28;20125;-77
2021/06/09 08:53:45;;;;;;;6.45;2.97;;;14.80;99.90;;;;;;5056125;28;20045;-78
2021/06/09 08:56:11;;;;;;;5.07;3.17;;;14.90;99.90;;;;;;5060927;28;20029;-77
2021/06/09 08:58:37;;;;;;;4.10;2.92;;;15.00;99.90;;;;;;5059307;28;20063;-78
2021/06/09 09:01:06;;;;;;;4.25;2.95;;;15.10;99.90;;;;;;5068403;28;20040;-77
2021/06/09 09:03:32;;;;;;;3.08;2.53;;;15.10;99.90;;;;;;5059744;28;20139;-76
2021/06/09 09:05:58;;;;;;;5.35;3.15;;;15.00;99.90;;;;;;5065256;28;20027;-77
2021/06/09 09:08:24;;;;;;;5.05;2.97;;;15.00;99.90;;;;;;5057878;28;20128;-77
2021/06/09 09:10:50;;;;;;;3.97;2.97;;;15.00;99.90;;;;;;5054596;28;20111;-78
2021/06/09 09:13:16;;;;;;;4.68;3.20;;;15.10;99.90;;;;;;5059531;28;20037;-78
2021/06/09 09:15:41;;;;;;;3.95;3.25;;;15.30;99.90;;;;;;5087881;28;20032;-77
2021/06/09 09:18:10;;;;;;;3.70;2.92;;;15.40;99.90;;;;;;5061512;28;20031;-78
2021/06/09 09:20:41;;;;;;;3.78;2.90;;;15.40;99.90;;;;;;5082520;28;20040;-78
2021/06/09 09:23:25;;;;;;;4.60;3.30;;;15.50;99.90;;;;;;5065177;28;20126;-78
2021/06/09 09:25:54;;;;;;;3.58;3.22;;;15.40;99.90;;;;;;5063427;28;20035;-78
2021/06/09 09:28:31;;;;;;;4.68;3.67;;;15.60;99.90;;;;;;5072159;28;20004;-78
2021/06/09 09:31:11;;;;;;;3.55;2.92;;;15.80;99.90;;;;;;5071094;28;20029;-78
2021/06/09 09:33:38;;;;;;;4.43;3.00;;;15.90;99.90;;;;;;5071001;28;20487;-78
2021/06/09 09:36:25;;;;;;;4.65;3.17;;;16.10;99.90;;;;;;5072791;28;20024;-76
2021/06/09 09:38:51;;;;;;;3.65;2.53;;;16.40;99.90;;;;;;5076805;28;20063;-78
2021/06/09 09:41:18;;;;;;;3.05;2.65;;;16.50;99.90;;;;;;5073856;28;20032;-77
2021/06/09 09:43:59;;;;;;;2.80;2.20;;;16.50;99.90;;;;;;5089961;28;20028;-78
2021/06/09 09:46:44;;;;;;;2.75;2.50;;;16.60;99.90;;;;;;5071336;28;20039;-79
2021/06/09 09:49:15;;;;;;;3.95;2.55;;;16.70;99.90;;;;;;5074306;28;20111;-78
2021/06/09 09:51:55;;;;;;;4.95;2.47;;;16.70;99.90;;;;;;5070910;28;20116;-79
2021/06/09 09:54:34;;;;;;;3.50;2.50;;;16.80;99.90;;;;;;5077988;28;20028;-78
2021/06/09 09:57:05;;;;;;;4.72;2.38;;;16.80;99.90;;;;;;5087979;28;20037;-78
2021/06/09 09:59:31;;;;;;;2.63;2.42;;;17.00;99.90;;;;;;5072230;28;20029;-78
2021/06/09 10:01:58;;;;;;;3.17;2.20;;;17.30;99.90;;;;;;5090107;28;20103;-78
2021/06/09 10:04:28;;;;;;;3.20;2.50;;;17.50;99.90;;;;;;5075464;28;20047;-78
2021/06/09 10:06:54;;;;;;;2.20;2.00;;;17.70;99.90;;;;;;5073173;28;20025;-78
2021/06/09 10:09:21;;;;;;;2.42;1.90;;;17.90;99.90;;;;;;5071763;28;20024;-79
2021/06/09 10:11:59;;;;;;;2.85;2.10;;;18.00;99.90;;;;;;5072926;28;20028;-78
2021/06/09 10:14:30;;;;;;;2.03;1.83;;;18.10;99.90;;;;;;5074535;28;20037;-79
2021/06/09 10:17:11;;;;;;;3.22;2.58;;;18.20;99.90;;;;;;5070606;28;20041;-78
2021/06/09 10:19:45;;;;;;;3.47;2.75;;;18.40;99.90;;;;;;5057215;28;20116;-78
2021/06/09 10:22:18;;;;;;;5.28;2.35;;;18.50;99.90;;;;;;5062825;28;20025;-78
2021/06/09 10:25:00;;;;;;;1.98;1.85;;;18.60;99.90;;;;;;5070749;28;20044;-78
2021/06/09 10:27:48;;;;;;;5.68;2.90;;;18.60;99.90;;;;;;5065117;28;20041;-79
2021/06/09 10:30:20;;;;;;;1.75;1.65;;;18.50;99.90;;;;;;5061138;28;20450;-79
2021/06/09 10:32:48;;;;;;;3.00;2.28;;;18.40;99.90;;;;;;5065112;28;20025;-78
2021/06/09 10:35:17;;;;;;;4.00;3.20;;;18.40;99.90;;;;;;5069100;28;20555;-79
2021/06/09 10:37:48;;;;;;;2.42;2.22;;;18.40;99.90;;;;;;5070759;28;20039;-78
2021/06/09 10:40:19;;;;;;;2.80;1.58;;;18.20;99.90;;;;;;5053496;28;20075;-79
2021/06/09 10:42:48;;;;;;;1.50;1.40;;;18.10;99.90;;;;;;5069087;28;20389;-77
2021/06/09 10:45:16;;;;;;;3.65;2.10;;;18.10;99.90;;;;;;5068575;28;20152;-78
2021/06/09 10:47:44;;;;;;;1.70;1.38;;;18.00;99.90;;;;;;5068138;28;20033;-78
2021/06/09 10:50:12;;;;;;;2.10;1.73;;;17.90;99.90;;;;;;5070904;28;20032;-78
2021/06/09 10:52:39;;;;;;;2.30;1.90;;;18.00;99.90;;;;;;5045604;28;20029;-79
2021/06/09 10:55:07;;;;;;;4.68;1.85;;;18.10;99.90;;;;;;5073895;28;20052;-79
2021/06/09 10:57:34;;;;;;;2.28;1.80;;;18.20;99.90;;;;;;5055938;28;20037;-79
2021/06/09 11:00:00;;;;;;;4.82;2.05;;;18.30;99.90;;;;;;5070603;28;20025;-79
2021/06/09 11:02:26;;;;;;;2.40;2.10;;;18.40;99.90;;;;;;5081596;28;20033;-79
2021/06/09 11:05:03;;;;;;;2.30;2.10;;;18.50;99.90;;;;;;5075863;28;20025;-78
2021/06/09 11:07:34;;;;;;;4.03;2.65;;;18.70;99.90;;;;;;5079981;28;20039;-77
2021/06/09 11:10:06;;;;;;;3.10;2.58;;;18.90;99.90;;;;;;5074113;28;20044;-79
2021/06/09 11:12:41;;;;;;;4.28;2.55;;;18.90;99.90;;;;;;5073893;28;20355;-78
2021/06/09 11:15:16;;;;;;;5.75;2.70;;;19.00;99.90;;;;;;5093256;28;20107;-79
2021/06/09 11:17:45;;;;;;;2.63;2.40;;;18.90;99.90;;;;;;5065664;28;20613;-79
2021/06/09 11:20:17;;;;;;;2.53;2.22;;;19.00;99.90;;;;;;5080675;28;20044;-80
2021/06/09 11:22:46;;;;;;;4.30;1.90;;;19.10;99.90;;;;;;5081951;28;20084;-80
2021/06/09 11:25:28;;;;;;;2.63;2.08;;;19.30;99.90;;;;;;5080987;28;20056;-78
2021/06/09 11:28:02;;;;;;;5.60;2.15;;;19.30;99.90;;;;;;5060295;28;20029;-79
2021/06/09 11:30:30;;;;;;;3.00;1.80;;;19.30;99.90;;;;;;5080974;28;20070;-80
2021/06/09 11:33:05;;;;;;;2.72;2.25;;;19.20;99.90;;;;;;5065911;28;20024;-80
2021/06/09 11:35:49;;;;;;;2.42;2.15;;;19.10;99.90;;;;;;5074435;28;20479;-79
2021/06/09 11:38:18;;;;;;;2.80;2.53;;;19.00;99.90;;;;;;5076315;28;20089;-79
2021/06/09 11:41:24;;;;;;;2.88;2.40;;;19.10;99.90;;;;;;5075820;28;20084;-77
2021/06/09 11:43:53;;;;;;;3.80;2.35;;;19.30;99.90;;;;;;5025466;28;20044;-78
2021/06/09 11:46:18;;;;;;;2.13;1.70;;;19.60;99.90;;;;;;5068628;28;20247;-77
2021/06/09 11:48:55;;;;;;;3.90;1.80;;;19.70;99.90;;;;;;5067754;28;20028;-78
2021/06/09 11:51:26;;;;;;;2.15;1.77;;;19.80;99.90;;;;;;5062424;28;20029;-78
2021/06/09 11:53:56;;;;;;;2.08;1.75;;;20.00;99.90;;;;;;5047294;28;20029;-78
2021/06/09 11:56:29;;;;;;;2.47;1.67;;;20.20;99.90;;;;;;5066058;28;20454;-78
2021/06/09 11:59:02;;;;;;;2.33;1.50;;;20.50;99.90;;;;;;5072321;28;20089;-78
2021/06/09 12:01:49;;;;;;;2.05;1.85;;;20.60;99.90;;;;;;5068148;28;20036;-78
2021/06/09 12:04:36;;;;;;;1.20;1.10;;;20.60;99.90;;;;;;5084618;28;20119;-78
2021/06/09 12:07:07;;;;;;;1.50;1.40;;;20.60;99.90;;;;;;5059121;28;20024;-77
2021/06/09 12:09:42;;;;;;;2.83;1.35;;;20.60;99.90;;;;;;5041328;28;20029;-77
2021/06/09 12:12:17;;;;;;;2.50;1.30;;;20.70;99.90;;;;;;5062343;28;20060;-77
2021/06/09 12:14:44;;;;;;;;;;;20.90;99.90;;;;;;5081841;28;20028;-77
2021/06/09 12:17:10;;;;;;;2.08;1.80;;;21.00;99.90;;;;;;5082835;28;19916;-78
2021/06/09 12:19:37;;;;;;;1.95;1.60;;;21.10;99.90;;;;;;5079562;28;20499;-77
2021/06/09 12:22:10;;;;;;;1.92;1.50;;;21.40;99.90;;;;;;5071368;28;20140;-78
2021/06/09 12:24:37;;;;;;;1.60;1.50;;;21.40;99.90;;;;;;5063212;28;20389;-77
2021/06/09 12:27:06;;;;;;;4.22;1.52;;;21.60;99.90;;;;;;5068444;28;20039;-78
2021/06/09 12:29:35;;;;;;;1.70;1.60;;;21.70;99.90;;;;;;5068237;28;20056;-78
2021/06/09 12:32:34;;;;;;;1.73;1.63;;;22.10;99.90;;;;;;5069056;28;20036;-78
2021/06/09 12:35:12;;;;;;;2.38;1.85;;;22.40;99.90;;;;;;5053801;28;20063;-78
2021/06/09 12:37:48;;;;;;;1.58;1.45;;;22.90;99.90;;;;;;5070037;28;20037;-78
2021/06/09 12:40:46;;;;;;;1.75;1.65;;;23.50;99.90;;;;;;5085619;28;20028;-78
2021/06/09 12:43:59;;;;;;;2.55;1.75;;;24.00;99.90;;;;;;5085556;28;20040;-78
2021/06/09 12:46:34;;;;;;;1.70;1.60;;;24.00;99.90;;;;;;5076458;28;20028;-78
2021/06/09 12:49:00;;;;;;;1.70;1.60;;;24.30;99.90;;;;;;5059824;28;20037;-77
2021/06/09 12:51:26;;;;;;;1.50;1.40;;;24.60;99.90;;;;;;5062949;28;20093;-77
2021/06/09 12:53:51;;;;;;;1.45;1.35;;;25.00;99.90;;;;;;5049397;28;20037;-77